JQ8 weather

CLOSED Maryfield Airport
Maryfield, Saskatchewan, Canada

Public forecast

Using degrees Celsius for public forecast. Weather courtesy of forecast.io.

Closest aviation weather report (METAR) to Maryfield Airport

Closest report is Brandon Municipal Airport, 60.7 nm (112.5 km) E. Retrieved 2019/10/21 06:00 UTC (2 minutes ago):

CYBR 210600Z 35007KT 15SM BKN200 02/M02 A2989 RMK CI6 SLP140

Closest aviation forecast (TAF) to Maryfield Airport

Closest forecast is Brandon Municipal Airport, 60.7 nm (112.5 km) E. Retrieved 2019/10/21 06:42 UTC (0 seconds ago):

TAF CYBR 210538Z 2106/2118 33008KT P6SM BKN100 FM211200 03008KT P6SM SCT200 RMK NXT FCST BY 211200Z